createdAt,value
2019-05-06T00:01:44.244Z,11.40
2019-05-06T00:04:14.100Z,12.90
2019-05-06T00:06:45.395Z,13.70
2019-05-06T00:09:17.646Z,11.40
2019-05-06T00:11:48.872Z,11.03
2019-05-06T00:14:20.057Z,7.67
2019-05-06T00:16:51.213Z,11.37
2019-05-06T00:19:24.484Z,13.73
2019-05-06T00:21:55.324Z,11.37
2019-05-06T00:24:29.612Z,12.70
2019-05-06T00:27:08.316Z,11.00
2019-05-06T00:29:39.457Z,9.07
2019-05-06T00:32:10.655Z,14.87
2019-05-06T00:34:43.653Z,11.97
2019-05-06T00:37:14.749Z,9.80
2019-05-06T00:39:57.697Z,10.23
2019-05-06T00:42:41.243Z,13.50
2019-05-06T00:45:13.782Z,20.83
2019-05-06T00:47:44.992Z,13.40
2019-05-06T00:50:16.539Z,15.40
2019-05-06T00:52:48.022Z,20.83
2019-05-06T00:55:19.204Z,17.37
2019-05-06T00:57:50.636Z,17.30
2019-05-06T01:00:28.586Z,18.13
2019-05-06T01:02:59.856Z,18.40
2019-05-06T01:05:31.074Z,16.13
2019-05-06T01:08:04.044Z,20.90
2019-05-06T01:10:35.346Z,16.03
2019-05-06T01:13:24.121Z,19.70
2019-05-06T01:15:55.102Z,24.27
2019-05-06T01:18:26.401Z,20.67
2019-05-06T01:21:14.489Z,17.10
2019-05-06T01:23:47.647Z,14.07
2019-05-06T01:26:19.208Z,20.97
2019-05-06T01:28:50.478Z,19.30
2019-05-06T01:31:21.660Z,24.27
2019-05-06T01:33:53.571Z,17.80
2019-05-06T01:36:25.144Z,19.10
2019-05-06T01:39:14.170Z,25.30
2019-05-06T01:42:01.127Z,21.00
2019-05-06T01:44:33.939Z,31.50
2019-05-06T01:47:05.391Z,21.27
2019-05-06T01:49:36.617Z,24.27
2019-05-06T01:52:07.874Z,25.03
2019-05-06T01:54:39.101Z,18.57
2019-05-06T01:57:10.339Z,26.07
2019-05-06T01:59:41.496Z,22.47
2019-05-06T02:02:14.333Z,24.70
2019-05-06T02:04:45.657Z,27.43
2019-05-06T02:07:16.866Z,26.70
2019-05-06T02:09:48.101Z,25.93
2019-05-06T02:12:19.323Z,26.70
2019-05-06T02:14:50.546Z,30.73
2019-05-06T02:17:23.765Z,24.43
2019-05-06T02:19:54.781Z,21.83
2019-05-06T02:22:54.042Z,29.27
2019-05-06T02:25:29.465Z,22.97
2019-05-06T02:28:00.711Z,19.63
2019-05-06T02:30:56.784Z,26.90
2019-05-06T02:33:58.858Z,23.87
2019-05-06T02:36:57.799Z,25.57
2019-05-06T02:39:29.046Z,22.73
2019-05-06T02:42:00.285Z,25.77
2019-05-06T02:44:33.625Z,33.93
2019-05-06T02:47:13.719Z,22.23
2019-05-06T02:49:57.712Z,19.30
2019-05-06T02:52:28.951Z,21.23
2019-05-06T02:55:00.202Z,26.17
2019-05-06T02:57:33.467Z,24.73
2019-05-06T03:00:05.477Z,25.40
2019-05-06T03:02:43.278Z,20.93
2019-05-06T03:05:12.864Z,24.73
2019-05-06T03:07:43.614Z,20.60
2019-05-06T03:10:17.003Z,20.30
2019-05-06T03:12:48.108Z,28.30
2019-05-06T03:15:19.397Z,21.87
2019-05-06T03:17:50.584Z,25.23
2019-05-06T03:20:48.722Z,20.27
2019-05-06T03:23:23.728Z,28.83
2019-05-06T03:25:54.441Z,29.27
2019-05-06T03:28:25.712Z,24.20
2019-05-06T03:30:57.293Z,23.47
2019-05-06T03:33:45.730Z,30.87
2019-05-06T03:36:15.175Z,24.53
2019-05-06T03:38:34.334Z,27.47
2019-05-06T03:41:05.580Z,31.63
2019-05-06T03:43:36.806Z,30.13
2019-05-06T03:46:33.625Z,36.70
2019-05-06T03:49:06.229Z,31.00
2019-05-06T03:51:37.449Z,28.50
2019-05-06T03:54:08.607Z,26.30
2019-05-06T03:56:43.148Z,31.13
2019-05-06T03:59:15.821Z,28.03
2019-05-06T04:01:46.986Z,26.17
2019-05-06T04:04:18.194Z,26.67
2019-05-06T04:06:49.546Z,23.37
2019-05-06T04:09:23.807Z,27.03
2019-05-06T04:11:54.405Z,26.27
2019-05-06T04:14:27.851Z,23.20
2019-05-06T04:17:07.326Z,29.20
2019-05-06T04:19:49.489Z,22.53
2019-05-06T04:22:26.613Z,25.50
2019-05-06T04:25:28.917Z,24.40
2019-05-06T04:28:07.576Z,27.40
2019-05-06T04:30:38.806Z,26.27
2019-05-06T04:33:16.319Z,23.83
2019-05-06T04:35:43.535Z,21.03
2019-05-06T04:38:14.818Z,21.00
2019-05-06T04:40:46.120Z,22.50
2019-05-06T04:43:17.504Z,24.60
2019-05-06T04:45:48.686Z,20.27
2019-05-06T04:48:19.905Z,24.17
2019-05-06T04:50:53.654Z,21.63
2019-05-06T04:53:27.067Z,22.83
2019-05-06T04:55:57.343Z,22.97
2019-05-06T04:58:28.593Z,15.83
2019-05-06T05:00:59.808Z,24.33
2019-05-06T05:03:33.609Z,22.53
2019-05-06T05:06:05.785Z,23.13
2019-05-06T05:08:38.303Z,23.90
2019-05-06T05:11:29.808Z,17.47
2019-05-06T05:14:25.837Z,17.23
2019-05-06T05:17:16.398Z,21.87
2019-05-06T05:19:47.644Z,19.53
2019-05-06T05:22:18.793Z,23.70
2019-05-06T05:24:51.954Z,21.70
2019-05-06T05:27:23.943Z,18.70
2019-05-06T05:29:55.427Z,21.90
2019-05-06T05:32:27.074Z,18.40
2019-05-06T05:34:58.637Z,21.63
2019-05-06T05:37:29.798Z,17.90
2019-05-06T05:40:03.001Z,20.43
2019-05-06T05:42:59.539Z,16.73
2019-05-06T05:45:32.692Z,22.10
2019-05-06T05:48:08.479Z,18.50
2019-05-06T05:50:42.114Z,21.97
2019-05-06T05:53:13.296Z,16.43
2019-05-06T05:55:44.641Z,17.50
2019-05-06T05:58:16.713Z,18.73
2019-05-06T06:00:47.975Z,14.67
2019-05-06T06:03:19.233Z,16.70
2019-05-06T06:05:52.081Z,19.37
2019-05-06T06:08:24.829Z,17.90
2019-05-06T06:11:00.997Z,20.80
2019-05-06T06:13:32.296Z,20.57
2019-05-06T06:16:20.878Z,15.17
2019-05-06T06:19:22.101Z,23.43
2019-05-06T06:22:05.127Z,17.53
2019-05-06T06:24:37.169Z,14.53
2019-05-06T06:27:08.408Z,13.93
2019-05-06T06:29:41.708Z,18.83
2019-05-06T06:32:23.943Z,14.80
2019-05-06T06:35:14.875Z,20.23
2019-05-06T06:38:13.904Z,18.50
2019-05-06T06:40:45.143Z,15.23
2019-05-06T06:43:20.517Z,20.30
2019-05-06T06:45:53.122Z,21.67
2019-05-06T06:48:24.531Z,23.70
2019-05-06T06:50:56.889Z,19.80
2019-05-06T06:53:28.465Z,15.90
2019-05-06T06:56:18.634Z,16.20
2019-05-06T06:59:08.477Z,15.70
2019-05-06T07:01:55.327Z,19.20
2019-05-06T07:04:39.999Z,15.40
2019-05-06T07:07:13.161Z,18.60
2019-05-06T07:09:44.349Z,16.27
2019-05-06T07:12:15.636Z,15.97
2019-05-06T07:14:46.758Z,14.23
2019-05-06T07:17:18.007Z,16.83
2019-05-06T07:19:53.552Z,13.20
2019-05-06T07:22:29.279Z,14.23
2019-05-06T07:25:03.771Z,19.13
2019-05-06T07:27:33.324Z,13.07
2019-05-06T07:30:06.137Z,10.80
2019-05-06T07:32:37.396Z,13.07
2019-05-06T07:35:09.063Z,14.37
2019-05-06T07:37:42.279Z,13.00
2019-05-06T07:40:13.542Z,12.63
2019-05-06T07:42:48.209Z,11.50
2019-05-06T07:45:44.483Z,18.90
2019-05-06T07:48:16.940Z,9.37
2019-05-06T07:50:49.275Z,13.30
2019-05-06T07:53:22.380Z,10.50
2019-05-06T07:55:53.493Z,13.23
2019-05-06T07:58:24.711Z,9.93
2019-05-06T08:00:56.009Z,10.70
2019-05-06T08:03:27.224Z,7.40
2019-05-06T08:05:58.968Z,8.70
2019-05-06T08:08:30.136Z,9.20
2019-05-06T08:11:02.742Z,9.10
2019-05-06T08:13:33.936Z,6.63
2019-05-06T08:16:05.586Z,5.57
2019-05-06T08:18:36.829Z,6.50
2019-05-06T08:21:16.414Z,5.70
2019-05-06T08:23:52.140Z,7.80
2019-05-06T08:26:22.706Z,6.37
2019-05-06T08:28:53.921Z,5.50
2019-05-06T08:31:25.142Z,7.43
2019-05-06T08:33:56.455Z,8.37
2019-05-06T08:36:36.795Z,5.53
2019-05-06T08:39:08.989Z,8.20
2019-05-06T08:41:42.210Z,14.67
2019-05-06T08:44:13.035Z,5.10
2019-05-06T08:46:44.308Z,6.90
2019-05-06T08:49:15.574Z,12.07
2019-05-06T08:52:12.960Z,7.43
2019-05-06T08:54:50.265Z,7.67
2019-05-06T08:57:22.784Z,6.50
2019-05-06T08:59:54.079Z,6.33
2019-05-06T09:02:25.308Z,10.47
2019-05-06T09:04:56.760Z,7.30
2019-05-06T09:07:28.017Z,10.97
2019-05-06T09:09:59.300Z,8.53
2019-05-06T09:12:32.812Z,7.03
2019-05-06T09:15:03.778Z,5.90
2019-05-06T09:17:35.103Z,11.87
2019-05-06T09:20:06.826Z,10.17
2019-05-06T09:22:38.076Z,8.20
2019-05-06T09:25:12.874Z,7.50
2019-05-06T09:28:02.542Z,9.00
2019-05-06T09:30:43.277Z,8.03
2019-05-06T09:33:17.126Z,8.20
2019-05-06T09:35:48.387Z,7.73
2019-05-06T09:38:19.613Z,7.20
2019-05-06T09:40:52.548Z,8.93
2019-05-06T09:43:23.942Z,10.20
2019-05-06T09:45:55.193Z,7.27
2019-05-06T09:48:45.160Z,9.43
2019-05-06T09:51:16.384Z,9.13
2019-05-06T09:54:05.211Z,7.40
2019-05-06T09:56:58.842Z,12.30
2019-05-06T09:59:32.056Z,9.10
2019-05-06T10:02:03.053Z,14.50
2019-05-06T10:04:34.342Z,8.20
2019-05-06T10:07:05.628Z,5.90
2019-05-06T10:09:36.807Z,6.03
2019-05-06T10:12:08.060Z,6.90
2019-05-06T10:14:43.273Z,8.50
2019-05-06T10:17:14.035Z,12.23
2019-05-06T10:19:45.435Z,12.20
2019-05-06T10:22:16.666Z,10.10
2019-05-06T10:24:47.971Z,9.67
2019-05-06T10:27:19.184Z,10.23
2019-05-06T10:30:03.245Z,8.80
2019-05-06T10:32:52.906Z,8.73
2019-05-06T10:35:27.818Z,11.47
2019-05-06T10:38:30.869Z,13.73
2019-05-06T10:41:07.788Z,17.53
2019-05-06T10:44:49.103Z,12.23
2019-05-06T10:47:22.503Z,12.27
2019-05-06T10:49:53.147Z,12.87
2019-05-06T10:52:28.780Z,12.53
2019-05-06T10:55:00.001Z,17.53
2019-05-06T10:57:43.094Z,16.93
2019-05-06T11:00:14.571Z,19.20
2019-05-06T11:02:54.890Z,24.20
2019-05-06T11:05:26.112Z,25.10
2019-05-06T11:08:06.730Z,25.20
2019-05-06T11:10:45.324Z,25.50
2019-05-06T11:13:24.351Z,24.77
2019-05-06T11:16:03.439Z,26.07
2019-05-06T11:18:35.977Z,27.13
2019-05-06T11:21:17.767Z,26.20
2019-05-06T11:23:52.469Z,24.30
2019-05-06T11:26:27.560Z,19.43
2019-05-06T11:29:05.125Z,15.00
2019-05-06T11:32:09.663Z,19.03
2019-05-06T11:34:59.942Z,19.60
2019-05-06T11:38:01.552Z,20.47
2019-05-06T11:40:42.100Z,24.63
2019-05-06T11:43:15.596Z,30.00
2019-05-06T11:45:47.857Z,20.53
2019-05-06T11:48:19.080Z,17.37
2019-05-06T11:50:51.907Z,18.07
2019-05-06T11:53:23.311Z,16.73
2019-05-06T11:55:55.082Z,15.70
2019-05-06T11:58:42.815Z,20.07
2019-05-06T12:01:20.100Z,15.70
2019-05-06T12:03:52.240Z,21.83
2019-05-06T12:06:23.520Z,15.90
2019-05-06T12:08:57.938Z,13.43
2019-05-06T12:11:30.273Z,15.50
2019-05-06T12:14:02.602Z,20.93
2019-05-06T12:16:33.948Z,19.27
2019-05-06T12:19:05.388Z,21.43
2019-05-06T12:21:36.757Z,16.83
2019-05-06T12:24:08.021Z,16.37
2019-05-06T12:26:39.229Z,15.83
2019-05-06T12:29:12.518Z,13.13
2019-05-06T12:31:43.403Z,13.70
2019-05-06T12:34:14.827Z,15.97
2019-05-06T12:36:47.592Z,13.60
2019-05-06T12:39:37.165Z,14.80
2019-05-06T12:42:34.159Z,14.63
2019-05-06T12:45:37.562Z,12.50
2019-05-06T12:48:25.521Z,11.10
2019-05-06T12:50:58.464Z,11.53
2019-05-06T12:53:29.703Z,11.70
2019-05-06T12:56:03.301Z,10.63
2019-05-06T12:58:34.624Z,11.10
2019-05-06T13:01:06.480Z,9.43
2019-05-06T13:03:37.717Z,11.00
2019-05-06T13:06:09.402Z,8.83
2019-05-06T13:08:56.498Z,8.53
2019-05-06T13:11:14.351Z,11.83
2019-05-06T13:13:56.557Z,9.07
2019-05-06T13:16:19.175Z,9.00
2019-05-06T13:18:52.492Z,10.40
2019-05-06T13:21:23.151Z,10.00
2019-05-06T13:24:01.519Z,9.67
2019-05-06T13:26:32.542Z,11.23
2019-05-06T13:29:09.929Z,9.33
2019-05-06T13:31:43.578Z,15.03
2019-05-06T13:34:19.010Z,12.20
2019-05-06T13:36:53.024Z,12.30
2019-05-06T13:39:23.937Z,14.10
2019-05-06T13:41:55.252Z,11.40
2019-05-06T13:44:26.485Z,13.40
2019-05-06T13:46:57.729Z,13.70
2019-05-06T13:49:47.703Z,17.70
2019-05-06T13:52:23.062Z,16.20
2019-05-06T13:54:54.269Z,12.57
2019-05-06T13:57:28.825Z,17.97
2019-05-06T13:59:58.410Z,18.53
2019-05-06T14:02:48.719Z,22.20
2019-05-06T14:05:20.302Z,13.23
2019-05-06T14:07:52.784Z,14.83
2019-05-06T14:10:24.342Z,12.80
2019-05-06T14:12:55.552Z,18.80
2019-05-06T14:15:26.833Z,16.50
2019-05-06T14:17:58.029Z,14.10
2019-05-06T14:20:29.253Z,12.63
2019-05-06T14:23:02.249Z,12.17
2019-05-06T14:25:52.820Z,15.87
2019-05-06T14:28:33.015Z,13.00
2019-05-06T14:31:12.960Z,13.23
2019-05-06T14:33:44.206Z,13.03
2019-05-06T14:36:15.483Z,14.17
2019-05-06T14:38:46.882Z,16.80
2019-05-06T14:41:25.949Z,16.90
2019-05-06T14:43:54.356Z,18.23
2019-05-06T14:46:25.768Z,12.90
2019-05-06T14:48:57.049Z,16.90
2019-05-06T14:51:29.620Z,18.10
2019-05-06T14:54:00.943Z,14.37
2019-05-06T14:56:42.775Z,15.13
2019-05-06T14:59:14.167Z,17.43
2019-05-06T15:01:45.879Z,13.30
2019-05-06T15:04:17.206Z,17.80
2019-05-06T15:06:48.425Z,17.80
2019-05-06T15:09:19.695Z,20.53
2019-05-06T15:11:50.820Z,18.20
2019-05-06T15:14:22.669Z,13.07
2019-05-06T15:16:54.551Z,14.70
2019-05-06T15:19:25.734Z,15.10
2019-05-06T15:21:57.011Z,25.30
2019-05-06T15:24:28.265Z,17.97
2019-05-06T15:26:59.479Z,18.33
2019-05-06T15:29:30.660Z,13.97
2019-05-06T15:32:22.872Z,12.90
2019-05-06T15:35:18.694Z,13.43
2019-05-06T15:37:56.002Z,8.60
2019-05-06T15:40:32.759Z,8.40
2019-05-06T15:43:02.218Z,7.37
2019-05-06T15:45:33.248Z,9.20
2019-05-06T15:48:04.450Z,10.20
2019-05-06T15:50:35.717Z,15.13
2019-05-06T15:53:07.038Z,13.10
2019-05-06T15:55:38.297Z,15.20
2019-05-06T15:58:09.502Z,14.70
2019-05-06T16:00:42.419Z,16.93
2019-05-06T16:03:13.876Z,15.03
2019-05-06T16:05:45.141Z,14.27
2019-05-06T16:08:16.431Z,15.10
2019-05-06T16:10:52.283Z,11.10
2019-05-06T16:13:22.273Z,11.97
2019-05-06T16:15:53.460Z,11.90
2019-05-06T16:18:24.828Z,10.33
2019-05-06T16:20:57.547Z,11.33
2019-05-06T16:23:38.580Z,8.73
2019-05-06T16:26:12.221Z,6.27
2019-05-06T16:28:45.083Z,10.53
2019-05-06T16:31:15.718Z,7.73
2019-05-06T16:33:46.925Z,9.40
2019-05-06T16:36:18.240Z,10.77
2019-05-06T16:38:54.630Z,16.27
2019-05-06T16:41:26.471Z,25.87
2019-05-06T16:43:57.653Z,9.77
2019-05-06T16:46:33.949Z,11.97
2019-05-06T16:49:03.428Z,9.90
2019-05-06T16:51:34.587Z,16.20
2019-05-06T16:54:12.363Z,9.30
2019-05-06T16:56:49.757Z,9.10
2019-05-06T16:59:23.643Z,9.77
2019-05-06T17:01:54.139Z,9.37
2019-05-06T17:04:59.465Z,9.07
2019-05-06T17:07:30.745Z,10.83
2019-05-06T17:10:03.433Z,8.93
2019-05-06T17:12:34.969Z,8.93
2019-05-06T17:15:06.806Z,7.53
2019-05-06T17:17:43.245Z,9.87
2019-05-06T17:20:12.214Z,9.50
2019-05-06T17:22:43.631Z,9.50
2019-05-06T17:25:15.234Z,8.80
2019-05-06T17:27:48.033Z,9.50
2019-05-06T17:30:33.099Z,9.50
2019-05-06T17:33:22.464Z,8.50
2019-05-06T17:35:54.016Z,12.83
2019-05-06T17:38:35.419Z,8.90
2019-05-06T17:41:06.677Z,7.60
2019-05-06T17:43:40.895Z,13.40
2019-05-06T17:46:12.721Z,11.07
2019-05-06T17:49:02.496Z,10.07
2019-05-06T17:51:37.434Z,10.73
2019-05-06T17:54:08.995Z,9.97
2019-05-06T17:56:41.932Z,12.20
2019-05-06T17:59:13.295Z,12.80
2019-05-06T18:01:47.981Z,8.83
2019-05-06T18:04:19.158Z,10.37
2019-05-06T18:06:52.440Z,8.40
2019-05-06T18:09:23.468Z,10.20
2019-05-06T18:11:59.102Z,9.00
2019-05-06T18:14:27.777Z,10.47
2019-05-06T18:16:59.025Z,10.17
2019-05-06T18:19:30.303Z,11.53
2019-05-06T18:22:02.556Z,9.90
2019-05-06T18:24:33.995Z,8.97
2019-05-06T18:27:05.279Z,11.00
2019-05-06T18:29:36.544Z,9.70
2019-05-06T18:32:07.756Z,11.90
2019-05-06T18:34:38.976Z,10.70
2019-05-06T18:37:12.491Z,10.73
2019-05-06T18:39:45.194Z,12.43
2019-05-06T18:42:20.145Z,13.53
2019-05-06T18:44:49.379Z,15.30
2019-05-06T18:47:20.714Z,16.23
2019-05-06T18:49:52.439Z,12.90
2019-05-06T18:52:23.830Z,14.80
2019-05-06T18:54:55.065Z,16.43
2019-05-06T18:57:26.343Z,15.00
2019-05-06T18:59:57.579Z,16.67
2019-05-06T19:02:28.797Z,14.43
2019-05-06T19:05:05.693Z,14.87
2019-05-06T19:07:36.920Z,13.40
2019-05-06T19:10:32.740Z,19.40
2019-05-06T19:13:03.711Z,16.50
2019-05-06T19:15:35.171Z,13.63
2019-05-06T19:18:06.442Z,18.03
2019-05-06T19:20:37.683Z,17.17
2019-05-06T19:23:08.895Z,15.90
2019-05-06T19:25:40.025Z,18.97
2019-05-06T19:28:12.102Z,24.03
2019-05-06T19:30:44.320Z,17.70
2019-05-06T19:33:15.585Z,14.60
2019-05-06T19:35:46.804Z,16.23
2019-05-06T19:38:18.047Z,15.97
2019-05-06T19:40:49.336Z,18.80
2019-05-06T19:43:21.979Z,14.63
2019-05-06T19:45:53.580Z,18.30
2019-05-06T19:48:24.798Z,17.70
2019-05-06T19:50:56.162Z,18.57
2019-05-06T19:53:27.380Z,16.87
2019-05-06T19:55:58.622Z,17.67
2019-05-06T19:58:31.709Z,17.27
2019-05-06T20:01:02.822Z,15.37
2019-05-06T20:03:35.230Z,19.30
2019-05-06T20:06:34.685Z,19.87
2019-05-06T20:09:33.038Z,17.73
2019-05-06T20:12:12.287Z,17.83
2019-05-06T20:14:49.633Z,21.23
2019-05-06T20:17:37.456Z,16.97
2019-05-06T20:20:35.060Z,14.90
2019-05-06T20:23:27.564Z,13.77
2019-05-06T20:26:15.639Z,15.60
2019-05-06T20:28:55.449Z,15.50
2019-05-06T20:31:38.139Z,20.17
2019-05-06T20:34:13.407Z,15.93
2019-05-06T20:36:49.048Z,16.83
2019-05-06T20:39:23.052Z,16.10
2019-05-06T20:41:54.001Z,15.30
2019-05-06T20:44:25.175Z,15.20
2019-05-06T20:46:56.507Z,15.87
2019-05-06T20:49:27.663Z,19.27
2019-05-06T20:51:59.001Z,17.80
2019-05-06T20:54:32.423Z,16.10
2019-05-06T20:57:03.102Z,16.63
2019-05-06T20:59:34.349Z,19.33
2019-05-06T21:02:05.892Z,17.87
2019-05-06T21:04:37.137Z,21.90
2019-05-06T21:07:08.381Z,21.47
2019-05-06T21:09:43.223Z,22.40
2019-05-06T21:12:14.621Z,18.40
2019-05-06T21:14:45.852Z,16.60
2019-05-06T21:17:17.151Z,19.00
2019-05-06T21:19:48.451Z,19.70
2019-05-06T21:22:19.726Z,17.63
2019-05-06T21:24:51.018Z,21.83
2019-05-06T21:27:23.052Z,17.33
2019-05-06T21:29:54.307Z,15.73
2019-05-06T21:32:25.610Z,17.07
2019-05-06T21:34:56.827Z,19.70
2019-05-06T21:37:27.978Z,21.03
2019-05-06T21:40:02.712Z,18.30
2019-05-06T21:42:33.967Z,16.97
2019-05-06T21:45:05.665Z,19.03
2019-05-06T21:47:36.898Z,19.20
2019-05-06T21:50:08.362Z,16.93
2019-05-06T21:52:40.087Z,17.00
2019-05-06T21:55:13.368Z,23.20
2019-05-06T21:57:44.703Z,18.80
2019-05-06T22:00:17.328Z,17.77
2019-05-06T22:02:48.576Z,18.23
2019-05-06T22:05:22.509Z,17.53
2019-05-06T22:07:53.022Z,18.07
2019-05-06T22:10:25.104Z,15.70
2019-05-06T22:12:56.454Z,14.03
2019-05-06T22:15:27.632Z,16.47
2019-05-06T22:17:58.753Z,18.03
2019-05-06T22:20:32.743Z,15.83
2019-05-06T22:23:04.056Z,18.57
2019-05-06T22:25:35.299Z,18.80
2019-05-06T22:28:06.492Z,21.10
2019-05-06T22:30:37.732Z,18.53
2019-05-06T22:33:08.896Z,18.17
2019-05-06T22:35:40.141Z,18.67
2019-05-06T22:38:12.370Z,20.00
2019-05-06T22:40:46.714Z,20.90
2019-05-06T22:43:17.940Z,15.87
2019-05-06T22:45:49.166Z,19.30
2019-05-06T22:48:22.207Z,16.40
2019-05-06T22:50:53.214Z,17.93
2019-05-06T22:53:24.866Z,19.47
2019-05-06T22:55:57.799Z,18.30
2019-05-06T22:58:29.013Z,21.87
2019-05-06T23:01:00.339Z,17.97
2019-05-06T23:03:34.488Z,19.30
2019-05-06T23:06:04.688Z,18.23
2019-05-06T23:08:35.903Z,17.67
2019-05-06T23:11:09.806Z,22.97
2019-05-06T23:13:41.915Z,19.70
2019-05-06T23:16:13.776Z,19.20
2019-05-06T23:18:44.985Z,20.87
2019-05-06T23:21:16.245Z,19.90
2019-05-06T23:23:48.453Z,21.00
2019-05-06T23:26:24.663Z,21.93
2019-05-06T23:28:55.789Z,19.10
2019-05-06T23:31:26.951Z,20.30
2019-05-06T23:33:58.402Z,20.97
2019-05-06T23:36:52.877Z,21.03
2019-05-06T23:40:22.068Z,27.57
2019-05-06T23:43:46.150Z,21.07
2019-05-06T23:47:12.566Z,18.90
2019-05-06T23:50:37.103Z,20.23
2019-05-06T23:54:03.120Z,23.13
2019-05-06T23:56:43.567Z,22.13
2019-05-06T23:59:16.679Z,19.20
